logo
Rechercher aéroport 
image banner adimage banner adimage banner ad
image banner ad

FAMOOI - Mooivlei

Situé à , South Africa

ICAO - , IATA -

Données fournies par Airmate  

Information générale

Coordonnées: S26°14'38" E29°45'10"
Élévation : 5633 feet MSL.
 
Voir autres Aéroports à Mpumalanga

Données opérationnelles

Special qualification required
Heure actuelle UTC:
Heure actuelle locale:
Météo à : FAEO - Ermelo ( 37 km )
METAR: FAEO 290740Z AUTO 23003KT //// // ////// 15/05 Q1034
Voir NOTAMs / SUP AIP / TFR affectant cet aéroport [VIEW]
Fréquences de communication: [VIEW]

Pistes:

Identifiant RWYQFULongueur (ft)Largeur (ft)SurfaceLDA (ft)
10134°459366GRASS
28314°459366GRASS

Coordonnées de l'aéroport

Adresse: South Africa

Vue satellite de FAMOOI